sensor_id;sensor_type;location;lat;lon;timestamp;temperature;humidity
652;DHT22;310;48.490;9.200;2023-02-08T00:00:16;2.00;30.00
652;DHT22;310;48.490;9.200;2023-02-08T00:02:42;2.00;30.10
652;DHT22;310;48.490;9.200;2023-02-08T00:05:07;2.10;29.50
652;DHT22;310;48.490;9.200;2023-02-08T00:07:33;2.00;30.10
652;DHT22;310;48.490;9.200;2023-02-08T00:09:59;1.50;31.70
652;DHT22;310;48.490;9.200;2023-02-08T00:12:24;1.60;31.00
652;DHT22;310;48.490;9.200;2023-02-08T00:14:50;1.30;31.80
652;DHT22;310;48.490;9.200;2023-02-08T00:17:15;1.40;31.90
652;DHT22;310;48.490;9.200;2023-02-08T00:19:41;1.70;30.90
652;DHT22;310;48.490;9.200;2023-02-08T00:22:06;1.50;31.70
652;DHT22;310;48.490;9.200;2023-02-08T00:24:32;1.40;32.50
652;DHT22;310;48.490;9.200;2023-02-08T00:26:58;1.40;31.50
652;DHT22;310;48.490;9.200;2023-02-08T00:29:23;1.40;32.10
652;DHT22;310;48.490;9.200;2023-02-08T00:31:49;1.30;31.90
652;DHT22;310;48.490;9.200;2023-02-08T00:34:15;1.40;32.10
652;DHT22;310;48.490;9.200;2023-02-08T00:36:41;1.40;31.80
652;DHT22;310;48.490;9.200;2023-02-08T00:39:06;1.50;31.70
652;DHT22;310;48.490;9.200;2023-02-08T00:41:32;1.20;32.10
652;DHT22;310;48.490;9.200;2023-02-08T00:43:57;1.20;32.80
652;DHT22;310;48.490;9.200;2023-02-08T00:46:23;1.40;32.10
652;DHT22;310;48.490;9.200;2023-02-08T00:48:48;1.30;32.40
652;DHT22;310;48.490;9.200;2023-02-08T00:51:14;1.30;32.40
652;DHT22;310;48.490;9.200;2023-02-08T00:53:42;1.30;33.00
652;DHT22;310;48.490;9.200;2023-02-08T00:56:09;1.30;32.30
652;DHT22;310;48.490;9.200;2023-02-08T00:58:35;1.20;32.70
652;DHT22;310;48.490;9.200;2023-02-08T01:01:01;1.10;32.60
652;DHT22;310;48.490;9.200;2023-02-08T01:03:27;1.20;32.10
652;DHT22;310;48.490;9.200;2023-02-08T01:05:52;1.20;32.50
652;DHT22;310;48.490;9.200;2023-02-08T01:08:19;1.30;32.60
652;DHT22;310;48.490;9.200;2023-02-08T01:10:46;0.90;33.00
652;DHT22;310;48.490;9.200;2023-02-08T01:13:12;4.00;35.90
652;DHT22;310;48.490;9.200;2023-02-08T01:15:38;1.00;33.40
652;DHT22;310;48.490;9.200;2023-02-08T01:18:04;0.90;33.00
652;DHT22;310;48.490;9.200;2023-02-08T01:20:29;1.20;31.70
652;DHT22;310;48.490;9.200;2023-02-08T01:22:55;1.40;31.40
652;DHT22;310;48.490;9.200;2023-02-08T01:25:21;1.20;32.20
652;DHT22;310;48.490;9.200;2023-02-08T01:27:47;1.30;31.40
652;DHT22;310;48.490;9.200;2023-02-08T01:30:12;1.30;32.00
652;DHT22;310;48.490;9.200;2023-02-08T01:32:38;1.20;32.40
652;DHT22;310;48.490;9.200;2023-02-08T01:35:04;1.10;33.80
652;DHT22;310;48.490;9.200;2023-02-08T01:37:30;1.10;32.80
652;DHT22;310;48.490;9.200;2023-02-08T01:39:55;1.20;32.10
652;DHT22;310;48.490;9.200;2023-02-08T01:42:21;1.30;31.10
652;DHT22;310;48.490;9.200;2023-02-08T01:47:41;0.80;33.00
652;DHT22;310;48.490;9.200;2023-02-08T01:50:08;1.20;31.00
652;DHT22;310;48.490;9.200;2023-02-08T01:52:34;1.40;31.20
652;DHT22;310;48.490;9.200;2023-02-08T01:55:14;1.00;31.90
652;DHT22;310;48.490;9.200;2023-02-08T01:57:42;1.10;30.70
652;DHT22;310;48.490;9.200;2023-02-08T02:00:21;1.20;31.20
652;DHT22;310;48.490;9.200;2023-02-08T02:02:47;1.00;31.10
652;DHT22;310;48.490;9.200;2023-02-08T02:05:18;1.00;31.30
652;DHT22;310;48.490;9.200;2023-02-08T02:07:44;1.20;29.70
652;DHT22;310;48.490;9.200;2023-02-08T02:10:20;1.00;30.20
652;DHT22;310;48.490;9.200;2023-02-08T02:12:47;0.90;30.20
652;DHT22;310;48.490;9.200;2023-02-08T02:15:13;4.30;32.80
652;DHT22;310;48.490;9.200;2023-02-08T02:17:39;0.80;31.40
652;DHT22;310;48.490;9.200;2023-02-08T02:20:17;0.80;30.80
652;DHT22;310;48.490;9.200;2023-02-08T02:36:35;0.70;31.10
652;DHT22;310;48.490;9.200;2023-02-08T02:39:21;0.90;29.90
652;DHT22;310;48.490;9.200;2023-02-08T02:42:28;0.70;30.50
652;DHT22;310;48.490;9.200;2023-02-08T02:50:57;0.70;30.50
652;DHT22;310;48.490;9.200;2023-02-08T02:56:12;0.70;30.70
652;DHT22;310;48.490;9.200;2023-02-08T02:58:40;0.70;31.10
652;DHT22;310;48.490;9.200;2023-02-08T03:01:06;0.80;30.20
652;DHT22;310;48.490;9.200;2023-02-08T03:03:33;0.70;30.10
652;DHT22;310;48.490;9.200;2023-02-08T03:06:13;0.60;29.90
652;DHT22;310;48.490;9.200;2023-02-08T03:09:07;0.60;30.80
652;DHT22;310;48.490;9.200;2023-02-08T03:11:42;0.70;30.20
652;DHT22;310;48.490;9.200;2023-02-08T03:14:35;0.70;30.40
652;DHT22;310;48.490;9.200;2023-02-08T03:19:42;0.20;31.50
652;DHT22;310;48.490;9.200;2023-02-08T03:22:25;0.30;31.40
652;DHT22;310;48.490;9.200;2023-02-08T03:24:58;0.10;31.70
652;DHT22;310;48.490;9.200;2023-02-08T03:27:39;0.00;31.80
652;DHT22;310;48.490;9.200;2023-02-08T03:30:16;0.10;32.60
652;DHT22;310;48.490;9.200;2023-02-08T03:32:47;0.00;33.00
652;DHT22;310;48.490;9.200;2023-02-08T03:35:35;-0.10;32.00
652;DHT22;310;48.490;9.200;2023-02-08T03:38:12;-0.20;32.50
652;DHT22;310;48.490;9.200;2023-02-08T03:40:42;-0.10;32.30
652;DHT22;310;48.490;9.200;2023-02-08T03:43:34;-0.10;32.20
652;DHT22;310;48.490;9.200;2023-02-08T03:46:13;0.10;32.20
652;DHT22;310;48.490;9.200;2023-02-08T03:48:45;0.20;31.30
652;DHT22;310;48.490;9.200;2023-02-08T03:51:13;0.10;31.20
652;DHT22;310;48.490;9.200;2023-02-08T03:53:41;0.00;31.70
652;DHT22;310;48.490;9.200;2023-02-08T03:56:19;0.00;31.30
652;DHT22;310;48.490;9.200;2023-02-08T03:58:54;-0.10;32.00
652;DHT22;310;48.490;9.200;2023-02-08T04:01:28;-0.20;32.50
652;DHT22;310;48.490;9.200;2023-02-08T04:03:55;-0.20;33.10
652;DHT22;310;48.490;9.200;2023-02-08T04:06:22;-0.20;32.50
652;DHT22;310;48.490;9.200;2023-02-08T04:08:48;-0.20;33.10
652;DHT22;310;48.490;9.200;2023-02-08T04:11:13;-0.10;32.50
652;DHT22;310;48.490;9.200;2023-02-08T04:13:39;-0.40;32.90
652;DHT22;310;48.490;9.200;2023-02-08T04:16:05;-0.30;33.20
652;DHT22;310;48.490;9.200;2023-02-08T04:18:30;-0.40;32.90
652;DHT22;310;48.490;9.200;2023-02-08T04:20:56;-0.40;33.10
652;DHT22;310;48.490;9.200;2023-02-08T04:23:22;-0.40;32.70
652;DHT22;310;48.490;9.200;2023-02-08T04:25:47;-0.60;33.30
652;DHT22;310;48.490;9.200;2023-02-08T04:28:13;-0.50;33.40
652;DHT22;310;48.490;9.200;2023-02-08T04:30:39;-0.50;33.10
652;DHT22;310;48.490;9.200;2023-02-08T04:33:04;-0.30;32.80
652;DHT22;310;48.490;9.200;2023-02-08T04:35:30;-0.40;33.30
652;DHT22;310;48.490;9.200;2023-02-08T04:37:55;-0.40;33.50
652;DHT22;310;48.490;9.200;2023-02-08T04:40:21;-0.10;32.30
652;DHT22;310;48.490;9.200;2023-02-08T04:42:46;-0.30;32.50
652;DHT22;310;48.490;9.200;2023-02-08T04:45:12;-0.20;31.60
652;DHT22;310;48.490;9.200;2023-02-08T04:47:38;-0.30;32.60
652;DHT22;310;48.490;9.200;2023-02-08T04:50:05;-0.40;32.80
652;DHT22;310;48.490;9.200;2023-02-08T04:52:30;-0.10;31.80
652;DHT22;310;48.490;9.200;2023-02-08T04:54:56;-0.20;31.90
652;DHT22;310;48.490;9.200;2023-02-08T04:57:22;-0.10;31.90
652;DHT22;310;48.490;9.200;2023-02-08T04:59:47;-0.30;32.00
652;DHT22;310;48.490;9.200;2023-02-08T05:02:13;-0.40;32.80
652;DHT22;310;48.490;9.200;2023-02-08T05:04:39;-0.40;32.30
652;DHT22;310;48.490;9.200;2023-02-08T05:07:04;-0.50;32.80
652;DHT22;310;48.490;9.200;2023-02-08T05:09:30;-0.60;33.20
652;DHT22;310;48.490;9.200;2023-02-08T05:11:55;-0.60;33.20
652;DHT22;310;48.490;9.200;2023-02-08T05:14:21;-0.50;33.00
652;DHT22;310;48.490;9.200;2023-02-08T05:16:47;-0.40;32.50
652;DHT22;310;48.490;9.200;2023-02-08T05:19:13;-0.40;32.10
652;DHT22;310;48.490;9.200;2023-02-08T05:21:38;0.50;32.90
652;DHT22;310;48.490;9.200;2023-02-08T05:24:05;-0.30;31.90
652;DHT22;310;48.490;9.200;2023-02-08T05:26:31;-0.50;32.60
652;DHT22;310;48.490;9.200;2023-02-08T05:28:57;-0.40;32.20
652;DHT22;310;48.490;9.200;2023-02-08T05:31:24;-0.20;30.80
652;DHT22;310;48.490;9.200;2023-02-08T05:33:51;-0.30;31.40
652;DHT22;310;48.490;9.200;2023-02-08T05:36:18;-0.30;31.50
652;DHT22;310;48.490;9.200;2023-02-08T05:38:44;-0.30;32.90
652;DHT22;310;48.490;9.200;2023-02-08T05:41:09;-0.20;31.10
652;DHT22;310;48.490;9.200;2023-02-08T05:43:35;-0.20;31.50
652;DHT22;310;48.490;9.200;2023-02-08T05:46:01;-0.30;31.50
652;DHT22;310;48.490;9.200;2023-02-08T05:48:27;-0.40;32.00
652;DHT22;310;48.490;9.200;2023-02-08T05:50:54;-0.20;30.80
652;DHT22;310;48.490;9.200;2023-02-08T05:53:19;-0.20;30.40
652;DHT22;310;48.490;9.200;2023-02-08T05:55:46;-0.30;31.00
652;DHT22;310;48.490;9.200;2023-02-08T05:58:13;-0.40;31.60
652;DHT22;310;48.490;9.200;2023-02-08T06:00:39;-0.30;31.10
652;DHT22;310;48.490;9.200;2023-02-08T06:03:05;-0.50;30.90
652;DHT22;310;48.490;9.200;2023-02-08T06:05:30;-0.50;31.00
652;DHT22;310;48.490;9.200;2023-02-08T06:07:56;-0.60;31.80
652;DHT22;310;48.490;9.200;2023-02-08T06:10:22;-0.70;32.20
652;DHT22;310;48.490;9.200;2023-02-08T06:12:47;-0.80;32.80
652;DHT22;310;48.490;9.200;2023-02-08T06:15:13;-0.60;32.30
652;DHT22;310;48.490;9.200;2023-02-08T06:17:39;-0.50;31.50
652;DHT22;310;48.490;9.200;2023-02-08T06:20:04;-0.30;30.30
652;DHT22;310;48.490;9.200;2023-02-08T06:22:30;-0.40;30.40
652;DHT22;310;48.490;9.200;2023-02-08T06:24:58;-0.40;31.00
652;DHT22;310;48.490;9.200;2023-02-08T06:27:23;-0.50;31.00
652;DHT22;310;48.490;9.200;2023-02-08T06:29:49;-0.50;31.20
652;DHT22;310;48.490;9.200;2023-02-08T06:32:15;-0.50;30.90
652;DHT22;310;48.490;9.200;2023-02-08T06:34:40;-0.40;30.00
652;DHT22;310;48.490;9.200;2023-02-08T06:37:06;-0.40;30.40
652;DHT22;310;48.490;9.200;2023-02-08T06:39:31;-0.40;30.40
652;DHT22;310;48.490;9.200;2023-02-08T06:41:57;-0.30;29.80
652;DHT22;310;48.490;9.200;2023-02-08T06:44:23;-0.40;30.60
652;DHT22;310;48.490;9.200;2023-02-08T06:46:48;-0.40;30.50
652;DHT22;310;48.490;9.200;2023-02-08T06:49:14;-0.60;31.40
652;DHT22;310;48.490;9.200;2023-02-08T06:51:40;-0.70;31.50
652;DHT22;310;48.490;9.200;2023-02-08T06:54:05;-1.00;32.60
652;DHT22;310;48.490;9.200;2023-02-08T06:56:31;-1.00;32.60
652;DHT22;310;48.490;9.200;2023-02-08T06:58:57;-1.00;33.00
652;DHT22;310;48.490;9.200;2023-02-08T07:01:23;-1.00;33.00
652;DHT22;310;48.490;9.200;2023-02-08T07:03:48;-0.90;32.70
652;DHT22;310;48.490;9.200;2023-02-08T07:06:15;-0.70;31.20
652;DHT22;310;48.490;9.200;2023-02-08T07:08:42;-0.40;31.20
652;DHT22;310;48.490;9.200;2023-02-08T07:11:14;-0.40;31.30
652;DHT22;310;48.490;9.200;2023-02-08T07:13:40;-0.30;30.00
652;DHT22;310;48.490;9.200;2023-02-08T07:16:08;-0.30;30.80
652;DHT22;310;48.490;9.200;2023-02-08T07:18:34;-0.50;31.00
652;DHT22;310;48.490;9.200;2023-02-08T07:21:00;-0.70;32.70
652;DHT22;310;48.490;9.200;2023-02-08T07:23:25;-0.70;32.30
652;DHT22;310;48.490;9.200;2023-02-08T07:26:03;-0.60;32.10
652;DHT22;310;48.490;9.200;2023-02-08T07:28:29;-0.60;32.00
652;DHT22;310;48.490;9.200;2023-02-08T07:30:55;-0.30;31.50
652;DHT22;310;48.490;9.200;2023-02-08T07:33:21;-0.30;31.50
652;DHT22;310;48.490;9.200;2023-02-08T07:35:46;-0.40;31.40
652;DHT22;310;48.490;9.200;2023-02-08T07:38:12;-0.30;32.00
652;DHT22;310;48.490;9.200;2023-02-08T07:40:38;-0.20;32.20
652;DHT22;310;48.490;9.200;2023-02-08T07:43:03;-0.20;32.30
652;DHT22;310;48.490;9.200;2023-02-08T07:45:29;-0.20;31.60
652;DHT22;310;48.490;9.200;2023-02-08T07:47:54;0.10;31.90
652;DHT22;310;48.490;9.200;2023-02-08T07:50:20;0.10;31.10
652;DHT22;310;48.490;9.200;2023-02-08T07:52:46;0.30;31.70
652;DHT22;310;48.490;9.200;2023-02-08T07:55:12;0.30;30.90
652;DHT22;310;48.490;9.200;2023-02-08T07:57:48;0.20;31.50
652;DHT22;310;48.490;9.200;2023-02-08T08:00:16;0.30;30.80
652;DHT22;310;48.490;9.200;2023-02-08T08:02:43;0.50;30.60
652;DHT22;310;48.490;9.200;2023-02-08T08:05:09;0.50;31.00
652;DHT22;310;48.490;9.200;2023-02-08T08:07:35;0.50;30.70
652;DHT22;310;48.490;9.200;2023-02-08T08:10:02;0.40;31.20
652;DHT22;310;48.490;9.200;2023-02-08T08:12:28;0.60;30.40
652;DHT22;310;48.490;9.200;2023-02-08T08:14:53;0.60;30.00
652;DHT22;310;48.490;9.200;2023-02-08T08:17:19;0.70;29.80
652;DHT22;310;48.490;9.200;2023-02-08T08:19:44;1.10;28.70
652;DHT22;310;48.490;9.200;2023-02-08T08:22:10;1.10;29.40
652;DHT22;310;48.490;9.200;2023-02-08T08:24:36;1.10;29.30
652;DHT22;310;48.490;9.200;2023-02-08T08:27:03;1.40;28.60
652;DHT22;310;48.490;9.200;2023-02-08T08:29:34;1.70;27.10
652;DHT22;310;48.490;9.200;2023-02-08T08:32:00;2.00;26.90
652;DHT22;310;48.490;9.200;2023-02-08T08:34:25;1.90;27.30
652;DHT22;310;48.490;9.200;2023-02-08T08:36:55;2.10;27.40
652;DHT22;310;48.490;9.200;2023-02-08T08:39:21;2.10;27.40
652;DHT22;310;48.490;9.200;2023-02-08T08:41:47;2.20;26.00
652;DHT22;310;48.490;9.200;2023-02-08T08:44:13;2.20;25.60
652;DHT22;310;48.490;9.200;2023-02-08T08:46:38;2.00;25.90
652;DHT22;310;48.490;9.200;2023-02-08T08:49:04;2.10;26.90
652;DHT22;310;48.490;9.200;2023-02-08T08:51:30;2.20;26.90
652;DHT22;310;48.490;9.200;2023-02-08T08:54:00;2.30;27.00
652;DHT22;310;48.490;9.200;2023-02-08T08:56:26;2.10;27.30
652;DHT22;310;48.490;9.200;2023-02-08T08:58:51;2.10;27.40
652;DHT22;310;48.490;9.200;2023-02-08T09:01:17;2.30;27.50
652;DHT22;310;48.490;9.200;2023-02-08T09:03:43;2.70;26.60
652;DHT22;310;48.490;9.200;2023-02-08T09:06:08;2.10;26.70
652;DHT22;310;48.490;9.200;2023-02-08T09:08:34;2.20;27.40
652;DHT22;310;48.490;9.200;2023-02-08T09:11:18;2.40;26.00
652;DHT22;310;48.490;9.200;2023-02-08T09:13:43;2.50;27.50
652;DHT22;310;48.490;9.200;2023-02-08T09:16:14;2.70;26.60
652;DHT22;310;48.490;9.200;2023-02-08T09:18:40;2.90;26.40
652;DHT22;310;48.490;9.200;2023-02-08T09:21:12;2.80;25.60
652;DHT22;310;48.490;9.200;2023-02-08T09:23:38;2.80;26.20
652;DHT22;310;48.490;9.200;2023-02-08T09:26:05;2.20;25.20
652;DHT22;310;48.490;9.200;2023-02-08T09:28:32;2.40;26.30
652;DHT22;310;48.490;9.200;2023-02-08T09:30:58;2.90;25.70
652;DHT22;310;48.490;9.200;2023-02-08T09:33:26;3.00;24.60
652;DHT22;310;48.490;9.200;2023-02-08T09:35:52;3.10;23.90
652;DHT22;310;48.490;9.200;2023-02-08T09:38:18;3.10;22.80
652;DHT22;310;48.490;9.200;2023-02-08T09:43:27;2.20;24.30
652;DHT22;310;48.490;9.200;2023-02-08T09:46:10;2.60;24.40
652;DHT22;310;48.490;9.200;2023-02-08T09:48:38;2.90;23.40
652;DHT22;310;48.490;9.200;2023-02-08T09:51:38;3.50;23.70
652;DHT22;310;48.490;9.200;2023-02-08T09:54:13;3.30;22.60
652;DHT22;310;48.490;9.200;2023-02-08T09:56:40;3.30;22.60
652;DHT22;310;48.490;9.200;2023-02-08T09:59:24;3.60;22.70
652;DHT22;310;48.490;9.200;2023-02-08T10:01:55;3.80;21.90
652;DHT22;310;48.490;9.200;2023-02-08T10:07:10;3.40;21.80
652;DHT22;310;48.490;9.200;2023-02-08T10:09:36;4.00;22.40
652;DHT22;310;48.490;9.200;2023-02-08T10:12:49;3.90;21.90
652;DHT22;310;48.490;9.200;2023-02-08T10:15:42;3.30;22.30
652;DHT22;310;48.490;9.200;2023-02-08T10:23:56;4.60;20.30
652;DHT22;310;48.490;9.200;2023-02-08T10:26:46;4.00;21.80
652;DHT22;310;48.490;9.200;2023-02-08T10:32:18;4.00;21.50
652;DHT22;310;48.490;9.200;2023-02-08T10:34:55;4.80;21.70
652;DHT22;310;48.490;9.200;2023-02-08T10:37:32;4.50;21.80
652;DHT22;310;48.490;9.200;2023-02-08T10:42:47;5.20;21.30
652;DHT22;310;48.490;9.200;2023-02-08T10:45:28;5.50;19.90
652;DHT22;310;48.490;9.200;2023-02-08T10:47:57;5.80;20.50
652;DHT22;310;48.490;9.200;2023-02-08T10:50:41;6.20;19.20
652;DHT22;310;48.490;9.200;2023-02-08T10:53:13;6.50;19.50
652;DHT22;310;48.490;9.200;2023-02-08T10:55:41;6.10;19.20
652;DHT22;310;48.490;9.200;2023-02-08T10:58:13;6.50;20.60
652;DHT22;310;48.490;9.200;2023-02-08T11:00:41;6.60;19.10
652;DHT22;310;48.490;9.200;2023-02-08T11:03:22;7.00;18.60
652;DHT22;310;48.490;9.200;2023-02-08T11:05:48;7.40;17.80
652;DHT22;310;48.490;9.200;2023-02-08T11:08:15;8.80;16.40
652;DHT22;310;48.490;9.200;2023-02-08T11:11:00;10.20;15.20
652;DHT22;310;48.490;9.200;2023-02-08T11:13:35;9.80;14.30
652;DHT22;310;48.490;9.200;2023-02-08T11:16:04;9.50;14.50
652;DHT22;310;48.490;9.200;2023-02-08T11:18:36;10.00;14.70
652;DHT22;310;48.490;9.200;2023-02-08T11:23:51;8.20;15.30
652;DHT22;310;48.490;9.200;2023-02-08T11:29:16;8.20;17.00
652;DHT22;310;48.490;9.200;2023-02-08T11:34:34;7.40;16.30
652;DHT22;310;48.490;9.200;2023-02-08T11:37:25;8.10;15.50
652;DHT22;310;48.490;9.200;2023-02-08T11:39:57;8.70;14.80
652;DHT22;310;48.490;9.200;2023-02-08T11:42:44;9.20;14.30
652;DHT22;310;48.490;9.200;2023-02-08T11:45:23;8.30;15.50
652;DHT22;310;48.490;9.200;2023-02-08T11:47:50;8.10;16.10
652;DHT22;310;48.490;9.200;2023-02-08T11:50:25;8.50;16.20
652;DHT22;310;48.490;9.200;2023-02-08T11:52:57;9.40;14.70
652;DHT22;310;48.490;9.200;2023-02-08T11:55:26;10.30;12.80
652;DHT22;310;48.490;9.200;2023-02-08T11:58:23;10.20;12.20
652;DHT22;310;48.490;9.200;2023-02-08T12:01:00;10.20;12.10
652;DHT22;310;48.490;9.200;2023-02-08T12:03:36;10.70;11.60
652;DHT22;310;48.490;9.200;2023-02-08T12:20:01;11.10;10.90
652;DHT22;310;48.490;9.200;2023-02-08T12:22:31;11.60;10.60
652;DHT22;310;48.490;9.200;2023-02-08T12:25:21;11.50;10.90
652;DHT22;310;48.490;9.200;2023-02-08T12:41:31;11.30;10.70
652;DHT22;310;48.490;9.200;2023-02-08T12:44:13;11.00;10.80
652;DHT22;310;48.490;9.200;2023-02-08T12:49:38;10.10;12.30
652;DHT22;310;48.490;9.200;2023-02-08T12:55:36;10.30;11.50
652;DHT22;310;48.490;9.200;2023-02-08T12:58:23;10.70;12.10
652;DHT22;310;48.490;9.200;2023-02-08T13:00:52;10.50;11.70
652;DHT22;310;48.490;9.200;2023-02-08T13:03:48;11.50;10.80
652;DHT22;310;48.490;9.200;2023-02-08T13:06:23;12.50;9.80
652;DHT22;310;48.490;9.200;2023-02-08T13:11:56;11.30;10.80
652;DHT22;310;48.490;9.200;2023-02-08T13:14:45;11.10;10.40
652;DHT22;310;48.490;9.200;2023-02-08T13:17:44;10.50;12.00
652;DHT22;310;48.490;9.200;2023-02-08T13:23:03;9.60;13.20
652;DHT22;310;48.490;9.200;2023-02-08T13:25:35;8.70;13.80
652;DHT22;310;48.490;9.200;2023-02-08T13:28:03;8.70;15.10
652;DHT22;310;48.490;9.200;2023-02-08T13:30:31;8.30;14.50
652;DHT22;310;48.490;9.200;2023-02-08T13:33:01;9.10;14.30
652;DHT22;310;48.490;9.200;2023-02-08T13:35:30;9.80;14.50
652;DHT22;310;48.490;9.200;2023-02-08T13:38:20;11.10;12.20
652;DHT22;310;48.490;9.200;2023-02-08T13:40:46;12.60;9.70
652;DHT22;310;48.490;9.200;2023-02-08T13:43:24;13.00;10.50
652;DHT22;310;48.490;9.200;2023-02-08T13:45:54;12.30;10.30
652;DHT22;310;48.490;9.200;2023-02-08T13:48:23;12.70;11.30
652;DHT22;310;48.490;9.200;2023-02-08T13:50:53;12.30;10.60
652;DHT22;310;48.490;9.200;2023-02-08T13:56:09;14.50;8.80
652;DHT22;310;48.490;9.200;2023-02-08T14:01:20;12.80;9.00
652;DHT22;310;48.490;9.200;2023-02-08T14:04:14;14.30;8.20
652;DHT22;310;48.490;9.200;2023-02-08T14:09:32;15.10;7.60
652;DHT22;310;48.490;9.200;2023-02-08T14:12:08;14.50;8.10
652;DHT22;310;48.490;9.200;2023-02-08T14:14:37;15.60;7.00
652;DHT22;310;48.490;9.200;2023-02-08T14:19:33;16.70;6.60
652;DHT22;310;48.490;9.200;2023-02-08T14:22:05;16.20;6.40
652;DHT22;310;48.490;9.200;2023-02-08T14:24:43;16.30;6.50
652;DHT22;310;48.490;9.200;2023-02-08T14:27:25;16.60;7.50
652;DHT22;310;48.490;9.200;2023-02-08T14:35:30;13.50;9.50
652;DHT22;310;48.490;9.200;2023-02-08T14:45:49;12.50;10.40
652;DHT22;310;48.490;9.200;2023-02-08T14:48:43;12.20;11.70
652;DHT22;310;48.490;9.200;2023-02-08T14:53:49;11.80;11.10
652;DHT22;310;48.490;9.200;2023-02-08T14:56:23;11.20;12.90
652;DHT22;310;48.490;9.200;2023-02-08T15:01:40;9.60;14.70
652;DHT22;310;48.490;9.200;2023-02-08T15:04:07;8.40;16.30
652;DHT22;310;48.490;9.200;2023-02-08T15:07:30;7.60;17.50
652;DHT22;310;48.490;9.200;2023-02-08T15:09:39;7.10;19.70
652;DHT22;310;48.490;9.200;2023-02-08T15:12:12;6.80;19.00
652;DHT22;310;48.490;9.200;2023-02-08T15:14:40;6.60;19.30
652;DHT22;310;48.490;9.200;2023-02-08T15:17:06;6.90;17.90
652;DHT22;310;48.490;9.200;2023-02-08T15:19:45;7.10;18.30
652;DHT22;310;48.490;9.200;2023-02-08T15:22:33;6.70;20.30
652;DHT22;310;48.490;9.200;2023-02-08T15:25:09;6.20;20.40
652;DHT22;310;48.490;9.200;2023-02-08T15:27:35;5.90;21.50
652;DHT22;310;48.490;9.200;2023-02-08T15:30:01;5.80;21.00
652;DHT22;310;48.490;9.200;2023-02-08T15:32:28;6.10;21.40
652;DHT22;310;48.490;9.200;2023-02-08T15:34:57;5.80;21.10
652;DHT22;310;48.490;9.200;2023-02-08T15:37:23;5.30;22.00
652;DHT22;310;48.490;9.200;2023-02-08T15:39:54;5.10;22.40
652;DHT22;310;48.490;9.200;2023-02-08T15:42:23;5.00;22.40
652;DHT22;310;48.490;9.200;2023-02-08T15:44:49;4.80;22.60
652;DHT22;310;48.490;9.200;2023-02-08T15:47:18;4.50;23.70
652;DHT22;310;48.490;9.200;2023-02-08T15:49:48;4.70;23.40
652;DHT22;310;48.490;9.200;2023-02-08T15:52:20;4.80;22.70
652;DHT22;310;48.490;9.200;2023-02-08T15:54:46;5.10;22.60
652;DHT22;310;48.490;9.200;2023-02-08T15:57:35;4.90;23.40
652;DHT22;310;48.490;9.200;2023-02-08T16:00:11;5.20;23.50
652;DHT22;310;48.490;9.200;2023-02-08T16:02:37;5.40;22.40
652;DHT22;310;48.490;9.200;2023-02-08T16:05:20;5.70;22.30
652;DHT22;310;48.490;9.200;2023-02-08T16:07:46;5.90;21.80
652;DHT22;310;48.490;9.200;2023-02-08T16:10:39;5.30;22.90
652;DHT22;310;48.490;9.200;2023-02-08T16:13:19;4.80;23.80
652;DHT22;310;48.490;9.200;2023-02-08T16:15:49;5.00;24.20
652;DHT22;310;48.490;9.200;2023-02-08T16:20:57;4.80;23.70
652;DHT22;310;48.490;9.200;2023-02-08T16:23:34;4.50;24.40
652;DHT22;310;48.490;9.200;2023-02-08T16:26:16;4.50;24.20
652;DHT22;310;48.490;9.200;2023-02-08T16:28:51;4.50;24.30
652;DHT22;310;48.490;9.200;2023-02-08T16:31:20;4.50;24.80
652;DHT22;310;48.490;9.200;2023-02-08T16:33:46;4.50;24.90
652;DHT22;310;48.490;9.200;2023-02-08T16:36:21;4.80;24.50
652;DHT22;310;48.490;9.200;2023-02-08T16:44:33;4.70;24.70
652;DHT22;310;48.490;9.200;2023-02-08T16:46:59;4.50;24.70
652;DHT22;310;48.490;9.200;2023-02-08T16:49:26;4.40;25.10
652;DHT22;310;48.490;9.200;2023-02-08T16:51:56;4.60;24.90
652;DHT22;310;48.490;9.200;2023-02-08T16:54:22;4.80;24.30
652;DHT22;310;48.490;9.200;2023-02-08T16:56:49;4.80;24.70
652;DHT22;310;48.490;9.200;2023-02-08T16:59:20;4.70;25.20
652;DHT22;310;48.490;9.200;2023-02-08T17:01:46;4.90;24.60
652;DHT22;310;48.490;9.200;2023-02-08T17:04:14;4.70;24.70
652;DHT22;310;48.490;9.200;2023-02-08T17:06:42;4.80;24.90
652;DHT22;310;48.490;9.200;2023-02-08T17:09:11;4.60;25.30
652;DHT22;310;48.490;9.200;2023-02-08T17:11:37;4.70;25.60
652;DHT22;310;48.490;9.200;2023-02-08T17:14:03;4.30;25.30
652;DHT22;310;48.490;9.200;2023-02-08T17:16:30;4.20;25.70
652;DHT22;310;48.490;9.200;2023-02-08T17:18:57;4.10;25.80
652;DHT22;310;48.490;9.200;2023-02-08T17:21:23;4.30;26.00
652;DHT22;310;48.490;9.200;2023-02-08T17:23:49;4.40;26.00
652;DHT22;310;48.490;9.200;2023-02-08T17:26:21;4.70;25.10
652;DHT22;310;48.490;9.200;2023-02-08T17:28:48;4.80;24.70
652;DHT22;310;48.490;9.200;2023-02-08T17:31:16;4.70;25.20
652;DHT22;310;48.490;9.200;2023-02-08T17:33:42;4.60;25.10
652;DHT22;310;48.490;9.200;2023-02-08T17:36:09;4.70;24.80
652;DHT22;310;48.490;9.200;2023-02-08T17:38:35;4.80;24.90
652;DHT22;310;48.490;9.200;2023-02-08T17:41:13;4.80;25.10
652;DHT22;310;48.490;9.200;2023-02-08T17:43:39;4.50;25.20
652;DHT22;310;48.490;9.200;2023-02-08T17:46:09;4.30;25.60
652;DHT22;310;48.490;9.200;2023-02-08T17:48:34;4.40;26.10
652;DHT22;310;48.490;9.200;2023-02-08T17:51:00;4.40;25.60
652;DHT22;310;48.490;9.200;2023-02-08T17:53:26;4.40;25.50
652;DHT22;310;48.490;9.200;2023-02-08T17:55:51;4.40;25.60
652;DHT22;310;48.490;9.200;2023-02-08T17:58:17;4.50;25.60
652;DHT22;310;48.490;9.200;2023-02-08T18:00:43;4.50;25.80
652;DHT22;310;48.490;9.200;2023-02-08T18:03:08;4.30;25.80
652;DHT22;310;48.490;9.200;2023-02-08T18:05:34;4.50;25.60
652;DHT22;310;48.490;9.200;2023-02-08T18:08:01;4.60;25.20
652;DHT22;310;48.490;9.200;2023-02-08T18:10:27;4.30;25.20
652;DHT22;310;48.490;9.200;2023-02-08T18:12:52;4.60;24.90
652;DHT22;310;48.490;9.200;2023-02-08T18:15:20;4.40;25.70
652;DHT22;310;48.490;9.200;2023-02-08T18:17:46;4.30;25.00
652;DHT22;310;48.490;9.200;2023-02-08T18:20:13;4.60;24.60
652;DHT22;310;48.490;9.200;2023-02-08T18:22:40;4.60;24.50
652;DHT22;310;48.490;9.200;2023-02-08T18:25:06;4.30;24.90
652;DHT22;310;48.490;9.200;2023-02-08T18:27:32;4.30;25.50
652;DHT22;310;48.490;9.200;2023-02-08T18:29:58;4.50;25.30
652;DHT22;310;48.490;9.200;2023-02-08T18:32:25;4.50;25.40
652;DHT22;310;48.490;9.200;2023-02-08T18:34:53;4.30;25.30
652;DHT22;310;48.490;9.200;2023-02-08T18:37:19;4.20;25.80
652;DHT22;310;48.490;9.200;2023-02-08T18:39:46;4.30;25.60
652;DHT22;310;48.490;9.200;2023-02-08T18:42:12;4.50;25.30
652;DHT22;310;48.490;9.200;2023-02-08T18:44:38;4.50;25.10
652;DHT22;310;48.490;9.200;2023-02-08T18:47:04;4.70;25.20
652;DHT22;310;48.490;9.200;2023-02-08T18:49:30;4.30;25.80
652;DHT22;310;48.490;9.200;2023-02-08T18:51:56;4.10;26.10
652;DHT22;310;48.490;9.200;2023-02-08T18:54:22;4.10;26.70
652;DHT22;310;48.490;9.200;2023-02-08T18:56:50;4.00;27.10
652;DHT22;310;48.490;9.200;2023-02-08T18:59:16;4.00;27.10
652;DHT22;310;48.490;9.200;2023-02-08T19:01:42;4.00;25.90
652;DHT22;310;48.490;9.200;2023-02-08T19:04:08;3.40;27.20
652;DHT22;310;48.490;9.200;2023-02-08T19:06:35;3.70;27.00
652;DHT22;310;48.490;9.200;2023-02-08T19:09:03;3.70;26.70
652;DHT22;310;48.490;9.200;2023-02-08T19:11:31;3.40;28.30
652;DHT22;310;48.490;9.200;2023-02-08T19:14:00;3.40;27.20